»·PEaware :: JUS326 KLAS-KPSP

JUS326 :: KLAS-KPSP

FLIGHT INFORMATION

Flight Status: Arrived
Operator:
USA Jet
More flights by this operator :: More flights under this callsign
Pilot: Erik S. (3779)
Aircraft: BOEING 737-300
(B733)
More flights by this aircraft type
Origin: KLAS McCarran Intl
United States
Destination: KPSP Palm Springs Intl
United States
More flights between these airports :: More routes between these airports
Route: +BOACH8 TNP SBONO1
File this flight plan on PilotEdge
Remarks:
Altitude:
(Current/Filed)
25,000ft
Speed:
(Current/Filed)
400kts
Departed: 09-Jan-18 09:21 AM
Arrived: 09-Jan-18 10:01 AM
Distance/Time
Traveled:
151nm/0:40
Distance/Time
To Go:
Arrived

Flight Plot

Page will automatically refresh every two minutes.

Flight plan parsing failed; only flown route is shown


Map Options




Map Legend


Flown Route
Filed Route
Departure Airport
Arrival Airport
Navaid (VOR, NDB)
Fix

Horizontal Profiles

Position Reports

Time Latitude Longitude Heading Altitude Ground
Speed
09-Jan-18 09:10 36.082579 -115.129569 90 2148ft 0kts
09-Jan-18 09:11 36.082579 -115.129569 90 2148ft 0kts
09-Jan-18 09:12 36.082579 -115.129569 90 2148ft 0kts
09-Jan-18 09:13 36.082579 -115.129569 90 2148ft 0kts
09-Jan-18 09:14 36.082579 -115.129569 90 2148ft 0kts
09-Jan-18 09:15 36.082579 -115.129569 90 2148ft 0kts
09-Jan-18 09:16 36.082579 -115.129569 90 2148ft 0kts
09-Jan-18 09:17 36.082579 -115.129569 90 2148ft 0kts
09-Jan-18 09:18 36.082579 -115.129569 90 2148ft 0kts
09-Jan-18 09:19 36.082579 -115.129569 90 2148ft 0kts
09-Jan-18 09:20 36.082579 -115.129569 90 2148ft 0kts
09-Jan-18 09:21 36.082579 -115.129569 90 2148ft 0kts
09-Jan-18 09:22 36.082565 -115.129761 79 2148ft 0kts
09-Jan-18 09:23 36.082242 -115.130207 356 2148ft 0kts
09-Jan-18 09:24 36.081098 -115.130424 172 2148ft 18kts
09-Jan-18 09:25 36.078277 -115.126726 87 2148ft 16kts
09-Jan-18 09:26 36.077616 -115.121635 131 2148ft 13kts
09-Jan-18 09:27 36.076397 -115.126116 270 2148ft 71kts
09-Jan-18 09:28 36.077366 -115.181006 275 4129ft 182kts
09-Jan-18 09:29 36.067535 -115.253050 218 5856ft 255kts
09-Jan-18 09:30 35.999369 -115.288676 197 8757ft 277kts
09-Jan-18 09:31 35.922560 -115.307790 183 11199ft 307kts
09-Jan-18 09:32 35.851437 -115.314755 175 13628ft 313kts
09-Jan-18 09:33 35.749987 -115.303048 175 16723ft 320kts
09-Jan-18 09:34 35.661148 -115.295285 182 19019ft 325kts
09-Jan-18 09:35 35.585784 -115.298498 182 20722ft 330kts
09-Jan-18 09:36 35.477927 -115.302797 183 22870ft 337kts
09-Jan-18 09:37 35.399646 -115.305882 183 23947ft 348kts
09-Jan-18 09:38 35.297930 -115.309869 183 23955ft 378kts
09-Jan-18 09:39 35.176007 -115.314736 183 23949ft 379kts
09-Jan-18 09:40 35.088428 -115.318180 183 23938ft 379kts
09-Jan-18 09:41 34.983876 -115.322222 184 23935ft 374kts
09-Jan-18 09:42 34.882766 -115.326204 186 23927ft 365kts
09-Jan-18 09:43 34.781784 -115.331448 195 23908ft 361kts
09-Jan-18 09:44 34.688179 -115.371734 201 23930ft 359kts
09-Jan-18 09:45 34.594427 -115.412760 201 23928ft 359kts
09-Jan-18 09:46 34.500581 -115.453705 201 23928ft 359kts
09-Jan-18 09:47 34.407113 -115.494317 201 23924ft 359kts
09-Jan-18 09:48 34.316028 -115.540707 218 22617ft 354kts
09-Jan-18 09:49 34.244951 -115.620677 220 20327ft 346kts
09-Jan-18 09:50 34.177115 -115.696976 220 18082ft 338kts
09-Jan-18 09:51 34.108951 -115.772320 214 15919ft 329kts
09-Jan-18 09:52 34.033964 -115.833154 212 14131ft 323kts
09-Jan-18 09:53 33.961913 -115.891415 212 12378ft 317kts
09-Jan-18 09:54 33.898524 -115.959910 253 10838ft 317kts
09-Jan-18 09:55 33.894450 -116.056680 260 10062ft 252kts
09-Jan-18 09:56 33.853242 -116.101783 209 9180ft 207kts
09-Jan-18 09:57 33.800297 -116.132232 210 7105ft 217kts
09-Jan-18 09:58 33.745129 -116.163084 209 5196ft 222kts
09-Jan-18 09:59 33.693557 -116.198998 246 4761ft 212kts
09-Jan-18 10:00 33.684760 -116.268133 265 3945ft 212kts
09-Jan-18 10:01 33.678322 -116.335660 265 4013ft 194kts
09-Jan-18 10:02 33.700206 -116.387549 322 3156ft 191kts
09-Jan-18 10:03 33.733911 -116.419002 322 2921ft 136kts
09-Jan-18 10:04 33.763922 -116.446841 322 2054ft 137kts
09-Jan-18 10:05 33.793871 -116.474545 322 1313ft 134kts
09-Jan-18 10:06 33.823405 -116.502068 323 485ft 130kts
09-Jan-18 10:07 33.836905 -116.515100 243 484ft 16kts
09-Jan-18 10:08 33.833433 -116.513141 142 484ft 18kts
09-Jan-18 10:09 33.827795 -116.508090 144 484ft 32kts
09-Jan-18 10:10 33.825348 -116.508175 272 484ft 0kts
09-Jan-18 10:11 33.825348 -116.508175 272 484ft 0kts

Navigation Log

Ident Type
Flight plan parsing failed, navigation log unavailable